Herd, Kentucky
Current Conditions -  °F | °C
As of 10:53 AM on Thursday 23 Oct 2014 (Local Time) from KLOZ Reporting Station
Few Clouds Few Clouds  
Wind Chill: 52°   Ceiling: Unl
Heat Index: 52°   Visibility: 10mi
Dew Point: 38°   Wind: 5mph
Humidity: 59%   Direction: NA
Pressure: 30.24"   Gusts: NA
Location:  37.346°N, 83.8503°W
Report Text: KLOZ 231453Z AUTO VRB04KT 10SM FEW025 11/03 A3024 RMK AO2 SLP238 T01110033 55001
Loading
Personal Weather Stations






























Interactive Weather Map
Tropical Storm Tracking
New forecast layout! Learn more

10-Day Weather Forecast

Advertisements
Track Severe Weather on mobile